Time;durP1;ratioP1;P1;durP2;ratioP2;P2;SDS_P1;SDS_P2;PMS_P1;PMS_P2;Temp;Humidity;BMP_temperature;BMP_pressure;BME280_temperature;BME280_humidity;BME280_pressure;Samples;Min_cycle;Max_cycle;Signal;HPM_P1;HPM_P2
2022/11/18 00:02:09;;;;;;;0.10;0.10;;;;;;;12.29;68.83;96166.91;8418152;28;20544;-73
2022/11/18 00:06:13;;;;;;;0.10;0.10;;;;;;;12.32;69.21;96159.69;8417987;28;20238;-73
2022/11/18 00:10:17;;;;;;;0.10;0.10;;;;;;;12.36;68.53;96159.47;8417870;28;20230;-73
2022/11/18 00:14:22;;;;;;;0.10;0.10;;;;;;;12.25;69.08;96147.34;8417676;28;20234;-73
2022/11/18 00:18:26;;;;;;;0.10;0.10;;;;;;;12.09;70.00;96129.59;8417759;28;20249;-74
2022/11/18 00:22:29;;;;;;;0.10;0.10;;;;;;;11.89;70.65;96131.13;8417307;28;20462;-73
2022/11/18 00:26:32;;;;;;;0.10;0.10;;;;;;;11.77;70.31;96134.69;8417599;28;20259;-74
2022/11/18 00:30:35;;;;;;;0.10;0.10;;;;;;;11.86;70.86;96131.34;8417455;28;20230;-74
2022/11/18 00:34:41;;;;;;;0.10;0.10;;;;;;;11.91;69.73;96130.06;8417144;28;20237;-75
2022/11/18 00:38:44;;;;;;;0.10;0.10;;;;;;;12.07;69.44;96132.28;8417237;28;20234;-73
2022/11/18 00:42:53;;;;;;;0.10;0.10;;;;;;;12.07;69.31;96142.66;8416935;28;20237;-74
2022/11/18 00:46:56;;;;;;;0.10;0.10;;;;;;;11.80;70.15;96131.84;8416646;28;20226;-74
2022/11/18 00:51:11;;;;;;;0.10;0.10;;;;;;;12.04;69.55;96131.72;8416644;28;20239;-74
2022/11/18 00:55:14;;;;;;;0.00;0.00;;;;;;;11.98;69.28;96127.81;8416607;28;20245;-74
2022/11/18 00:59:17;;;;;;;0.10;0.10;;;;;;;11.73;70.79;96137.50;8416598;28;20223;-74
2022/11/18 01:03:20;;;;;;;0.10;0.10;;;;;;;12.02;69.53;96138.78;8416438;28;20250;-73
2022/11/18 01:07:25;;;;;;;0.10;0.10;;;;;;;12.12;68.91;96140.50;8416189;28;20442;-73
2022/11/18 01:15:50;;;;;;;0.10;0.10;;;;;;;11.90;69.97;96145.78;8415787;28;20234;-73
2022/11/18 01:19:53;;;;;;;0.10;0.10;;;;;;;12.03;69.25;96149.06;8415383;28;20222;-73
2022/11/18 01:23:57;;;;;;;0.10;0.10;;;;;;;12.07;69.15;96147.00;8415188;28;20231;-74
2022/11/18 01:28:00;;;;;;;0.10;0.10;;;;;;;12.10;68.83;96147.59;8415413;28;20231;-74
2022/11/18 01:32:03;;;;;;;0.10;0.10;;;;;;;12.10;68.78;96142.41;8414980;28;20538;-73
2022/11/18 01:36:27;;;;;;;0.10;0.10;;;;;;;12.08;68.97;96141.72;8415079;28;20512;-73
2022/11/18 01:40:32;;;;;;;0.10;0.10;;;;;;;12.12;68.90;96140.50;8415083;28;20231;-74
2022/11/18 01:45:03;;;;;;;0.10;0.10;;;;;;;11.89;69.56;96141.50;8414943;28;20222;-74
2022/11/18 01:49:08;;;;;;;0.10;0.10;;;;;;;11.70;70.37;96137.72;8414644;28;20230;-74
2022/11/18 01:53:13;;;;;;;0.10;0.10;;;;;;;12.06;68.99;96147.97;8414601;28;20234;-73
2022/11/18 01:57:21;;;;;;;0.10;0.10;;;;;;;12.12;68.33;96163.03;8414620;28;20222;-74
2022/11/18 02:01:24;;;;;;;0.10;0.10;;;;;;;12.11;68.52;96166.59;8414474;28;20230;-73
2022/11/18 02:05:28;;;;;;;0.10;0.10;;;;;;;12.16;68.04;96168.81;8414351;28;20430;-74
2022/11/18 02:09:31;;;;;;;0.10;0.10;;;;;;;12.09;67.94;96164.13;8414303;28;20238;-74
2022/11/18 02:13:35;;;;;;;0.10;0.10;;;;;;;12.05;68.15;96151.50;8413954;28;20230;-74
2022/11/18 02:17:45;;;;;;;0.10;0.10;;;;;;;12.05;67.94;96139.38;8414105;28;20227;-75
2022/11/18 02:21:55;;;;;;;0.00;0.00;;;;;;;12.00;67.92;96132.91;8414032;28;20280;-73
2022/11/18 02:26:12;;;;;;;0.07;0.07;;;;;;;11.97;67.75;96140.91;8413396;28;20229;-74
2022/11/18 02:30:17;;;;;;;0.10;0.10;;;;;;;11.85;67.97;96135.72;8413827;28;20223;-74
2022/11/18 02:34:28;;;;;;;0.10;0.10;;;;;;;11.87;68.20;96139.00;8413677;28;20241;-73
2022/11/18 02:38:34;;;;;;;0.10;0.10;;;;;;;11.83;68.13;96139.38;8413649;28;20223;-73
2022/11/18 02:42:38;;;;;;;0.10;0.10;;;;;;;11.74;68.46;96141.72;8413588;28;20433;-74
2022/11/18 02:46:45;;;;;;;0.10;0.10;;;;;;;11.65;68.36;96137.28;8413474;28;20227;-74
2022/11/18 02:50:50;;;;;;;0.10;0.10;;;;;;;11.59;69.53;96139.50;8413405;28;20237;-74
2022/11/18 02:54:54;;;;;;;0.10;0.10;;;;;;;11.48;69.53;96146.38;8412890;28;20234;-74
2022/11/18 02:58:56;;;;;;;0.10;0.10;;;;;;;11.67;68.69;96150.94;8413350;28;20542;-73
2022/11/18 03:03:01;;;;;;;0.10;0.10;;;;;;;11.74;68.63;96157.28;8413305;28;20236;-74
2022/11/18 03:07:09;;;;;;;0.10;0.10;;;;;;;11.68;68.86;96149.19;8413062;28;20238;-73
2022/11/18 03:11:16;;;;;;;0.10;0.10;;;;;;;11.80;67.94;96150.81;8413122;28;20292;-73
2022/11/18 03:15:24;;;;;;;0.10;0.10;;;;;;;11.89;67.96;96155.31;8412910;28;20233;-73
2022/11/18 03:19:35;;;;;;;0.10;0.10;;;;;;;11.84;67.94;96149.63;8412934;28;20230;-73
2022/11/18 03:23:40;;;;;;;0.10;0.10;;;;;;;11.83;67.49;96163.53;8412842;28;20445;-74
2022/11/18 03:27:49;;;;;;;0.10;0.10;;;;;;;11.76;68.01;96161.53;8412805;28;20230;-73
2022/11/18 03:31:55;;;;;;;0.10;0.10;;;;;;;11.65;67.73;96165.81;8412647;28;20226;-73
2022/11/18 03:36:02;;;;;;;0.10;0.10;;;;;;;11.73;67.96;96167.81;8412278;28;20226;-73
2022/11/18 03:40:10;;;;;;;0.10;0.10;;;;;;;11.83;67.90;96173.91;8412506;28;20238;-73
2022/11/18 03:44:17;;;;;;;0.10;0.10;;;;;;;11.90;67.76;96187.28;8412608;28;20231;-73
2022/11/18 03:48:23;;;;;;;0.10;0.10;;;;;;;11.94;67.63;96193.88;8412661;28;20557;-73
2022/11/18 03:52:30;;;;;;;0.10;0.10;;;;;;;11.85;67.53;96181.59;8412519;28;20546;-73
2022/11/18 03:56:37;;;;;;;0.10;0.10;;;;;;;11.86;67.73;96184.06;8414265;28;20234;-73
2022/11/18 04:00:42;;;;;;;0.10;0.10;;;;;;;11.81;67.89;96183.59;8418407;28;20440;-73
2022/11/18 04:04:47;;;;;;;0.10;0.10;;;;;;;11.79;67.31;96182.06;8417869;28;20232;-73
2022/11/18 04:08:55;;;;;;;0.10;0.10;;;;;;;11.95;66.89;96186.91;8418150;28;20242;-73
2022/11/18 04:13:02;;;;;;;0.10;0.10;;;;;;;11.95;67.42;96190.31;8417547;28;20242;-73
2022/11/18 04:17:09;;;;;;;0.10;0.10;;;;;;;11.87;67.80;96190.88;8417738;28;20235;-73
2022/11/18 04:21:12;;;;;;;0.10;0.10;;;;;;;11.78;66.92;96191.59;8418060;28;20274;-73
2022/11/18 04:25:18;;;;;;;0.10;0.10;;;;;;;11.86;67.59;96191.84;8417501;28;20219;-73
2022/11/18 04:29:20;;;;;;;0.10;0.10;;;;;;;11.87;67.22;96188.28;8417571;28;20230;-73
2022/11/18 04:33:23;;;;;;;0.10;0.10;;;;;;;11.88;67.05;96192.53;8417276;28;20222;-73
2022/11/18 04:37:26;;;;;;;0.10;0.10;;;;;;;11.90;67.07;96205.44;8417192;28;20239;-73
2022/11/18 04:45:46;;;;;;;0.10;0.10;;;;;;;11.92;66.68;96203.53;8416775;28;20565;-73
2022/11/18 04:49:49;;;;;;;0.10;0.10;;;;;;;11.91;66.68;96205.28;8417003;28;20429;-73
2022/11/18 04:53:52;;;;;;;0.10;0.10;;;;;;;11.91;66.17;96207.06;8416255;28;20229;-76
2022/11/18 04:57:56;;;;;;;0.10;0.10;;;;;;;11.97;66.40;96206.59;8416509;28;20237;-73
2022/11/18 05:01:59;;;;;;;0.10;0.10;;;;;;;11.97;66.31;96210.97;8416146;28;20231;-73
2022/11/18 05:06:02;;;;;;;0.10;0.10;;;;;;;11.91;66.86;96213.06;8416345;28;20437;-74
2022/11/18 05:10:06;;;;;;;0.10;0.10;;;;;;;11.95;66.77;96202.47;8414945;28;20226;-73
2022/11/18 05:14:09;;;;;;;0.10;0.10;;;;;;;11.89;66.51;96217.56;8415720;28;20234;-73
2022/11/18 05:18:12;;;;;;;0.10;0.10;;;;;;;11.87;66.41;96211.63;8416013;28;20235;-73
2022/11/18 05:22:15;;;;;;;0.10;0.10;;;;;;;11.96;66.82;96215.31;8415919;28;20418;-73
2022/11/18 05:26:18;;;;;;;0.00;0.00;;;;;;;11.95;66.61;96220.63;8415592;28;20222;-73
2022/11/18 05:30:22;;;;;;;0.10;0.10;;;;;;;11.95;66.85;96218.84;8415539;28;20230;-73
2022/11/18 05:34:25;;;;;;;0.10;0.10;;;;;;;11.99;66.75;96222.03;8415279;28;20426;-73
2022/11/18 05:38:28;;;;;;;0.00;0.00;;;;;;;11.98;66.81;96228.19;8415348;28;20223;-72
2022/11/18 05:46:53;;;;;;;0.10;0.10;;;;;;;11.95;66.45;96236.19;8414991;28;20243;-72
2022/11/18 05:50:56;;;;;;;0.10;0.10;;;;;;;12.02;66.57;96227.81;8414650;28;20231;-73
2022/11/18 05:54:58;;;;;;;0.00;0.00;;;;;;;12.03;65.75;96226.88;8414634;28;20223;-73
2022/11/18 05:59:01;;;;;;;0.10;0.10;;;;;;;12.05;66.05;96242.31;8414851;28;20237;-73
2022/11/18 06:03:09;;;;;;;0.10;0.10;;;;;;;12.06;66.11;96239.59;8414260;28;20235;-73
2022/11/18 06:07:17;;;;;;;0.00;0.00;;;;;;;12.01;66.38;96253.88;8414346;28;20238;-73
2022/11/18 06:11:20;;;;;;;0.00;0.00;;;;;;;11.94;66.42;96253.53;8414275;28;20234;-73
2022/11/18 06:15:25;;;;;;;0.10;0.10;;;;;;;11.97;66.44;96255.06;8414036;28;20242;-73
2022/11/18 06:19:30;;;;;;;0.10;0.10;;;;;;;12.02;66.32;96256.34;8413944;28;20421;-73
2022/11/18 06:23:35;;;;;;;0.10;0.10;;;;;;;11.97;66.28;96265.44;8414283;28;20557;-73
2022/11/18 06:27:38;;;;;;;0.10;0.10;;;;;;;11.94;66.59;96274.28;8413848;28;20238;-74
2022/11/18 06:31:41;;;;;;;0.10;0.10;;;;;;;12.00;66.11;96265.22;8413747;28;20233;-74
2022/11/18 06:35:45;;;;;;;0.10;0.10;;;;;;;12.03;65.66;96268.41;8413394;28;20238;-71
2022/11/18 06:39:48;;;;;;;0.10;0.10;;;;;;;12.00;66.52;96273.00;8413522;28;20234;-74
2022/11/18 06:43:51;;;;;;;0.10;0.10;;;;;;;11.96;66.59;96281.97;8413327;28;20230;-74
2022/11/18 06:47:56;;;;;;;0.10;0.10;;;;;;;11.95;66.72;96288.06;8413195;28;20238;-74
2022/11/18 06:52:00;;;;;;;0.10;0.10;;;;;;;12.01;66.33;96290.19;8413448;28;20460;-74
2022/11/18 06:56:04;;;;;;;0.10;0.10;;;;;;;12.06;66.36;96295.88;8413388;28;20434;-75
2022/11/18 07:00:08;;;;;;;0.10;0.10;;;;;;;12.06;65.98;96303.66;8413239;28;20226;-74
2022/11/18 07:04:10;;;;;;;0.10;0.10;;;;;;;12.04;65.83;96306.34;8412882;28;20234;-74
2022/11/18 07:08:15;;;;;;;0.10;0.10;;;;;;;12.05;66.41;96317.53;8413533;28;20400;-74
2022/11/18 07:12:18;;;;;;;0.10;0.10;;;;;;;12.02;66.36;96312.59;8413005;28;20234;-74
2022/11/18 07:16:22;;;;;;;0.10;0.10;;;;;;;12.00;66.59;96320.50;8412924;28;20226;-74
2022/11/18 07:20:25;;;;;;;0.10;0.10;;;;;;;12.08;66.45;96325.94;8412988;28;20227;-74
2022/11/18 07:24:30;;;;;;;0.10;0.10;;;;;;;11.98;66.44;96321.56;8412773;28;20226;-74
2022/11/18 07:28:33;;;;;;;0.10;0.10;;;;;;;11.99;66.58;96325.81;8412766;28;20427;-74
2022/11/18 07:32:36;;;;;;;0.10;0.10;;;;;;;11.98;65.98;96337.13;8416222;28;20231;-74
2022/11/18 07:36:38;;;;;;;0.00;0.00;;;;;;;11.91;66.77;96335.00;8419028;28;20230;-76
2022/11/18 07:40:43;;;;;;;0.10;0.10;;;;;;;11.78;67.38;96339.41;8419103;28;20234;-74
2022/11/18 07:44:46;;;;;;;0.10;0.10;;;;;;;11.85;67.05;96340.63;8419056;28;20237;-74
2022/11/18 07:48:50;;;;;;;0.10;0.10;;;;;;;11.67;67.33;96352.34;8418887;28;20227;-74
2022/11/18 07:52:56;;;;;;;0.00;0.00;;;;;;;11.70;66.80;96352.97;8418208;28;20226;-75
2022/11/18 07:57:00;;;;;;;0.10;0.10;;;;;;;11.54;66.49;96360.25;8418584;28;20231;-74
2022/11/18 08:01:08;;;;;;;0.10;0.10;;;;;;;11.63;66.66;96358.72;8418417;28;20231;-74
2022/11/18 08:05:11;;;;;;;0.10;0.10;;;;;;;11.37;67.20;96368.44;8418303;28;20234;-74
2022/11/18 08:09:19;;;;;;;0.10;0.10;;;;;;;11.46;67.04;96376.34;8418184;28;20226;-74
2022/11/18 08:13:24;;;;;;;0.10;0.10;;;;;;;11.47;66.95;96377.19;8418005;28;20233;-74
2022/11/18 08:17:27;;;;;;;0.10;0.10;;;;;;;11.45;66.94;96379.06;8417885;28;20404;-74
2022/11/18 08:21:29;;;;;;;0.10;0.10;;;;;;;11.56;66.95;96376.50;8417753;28;20526;-74
2022/11/18 08:25:32;;;;;;;0.10;0.10;;;;;;;11.59;66.90;96380.63;8417739;28;20243;-74
2022/11/18 08:29:36;;;;;;;0.10;0.10;;;;;;;11.64;66.94;96388.91;8417509;28;20223;-74
2022/11/18 08:33:39;;;;;;;0.10;0.10;;;;;;;11.28;67.39;96388.06;8417490;28;20272;-75
2022/11/18 08:37:42;;;;;;;0.10;0.10;;;;;;;11.45;67.02;96382.47;8417308;28;20433;-74
2022/11/18 08:41:46;;;;;;;0.10;0.10;;;;;;;11.38;67.34;96402.00;8417091;28;20534;-74
2022/11/18 08:45:50;;;;;;;0.10;0.10;;;;;;;11.48;67.45;96390.03;8416851;28;20234;-74
2022/11/18 08:49:53;;;;;;;0.10;0.10;;;;;;;13.23;85.14;96400.97;8416218;28;20227;-74
2022/11/18 08:53:56;;;;;;;0.10;0.10;;;;;;;13.86;73.18;96406.34;8416731;28;20237;-75
2022/11/18 08:57:59;;;;;;;0.10;0.10;;;;;;;14.23;68.54;96393.66;8416578;28;20429;-74
2022/11/18 09:02:03;;;;;;;0.10;0.10;;;;;;;13.30;62.49;96405.59;8416684;28;20539;-73
2022/11/18 09:06:07;;;;;;;0.00;0.00;;;;;;;12.86;63.15;96403.91;8416150;28;20242;-75
2022/11/18 09:10:10;;;;;;;0.10;0.10;;;;;;;12.43;63.31;96404.63;8416031;28;20226;-73
2022/11/18 09:14:13;;;;;;;0.00;0.00;;;;;;;12.18;64.47;96403.06;8415982;28;20227;-74
2022/11/18 09:18:37;;;;;;;0.10;0.10;;;;;;;12.13;64.92;96411.22;8415871;28;20352;-73
2022/11/18 09:22:41;;;;;;;0.10;0.10;;;;;;;12.10;64.68;96409.66;8416066;28;20234;-73
2022/11/18 09:26:43;;;;;;;0.10;0.10;;;;;;;11.83;65.69;96415.13;8415714;28;20233;-72
2022/11/18 09:30:46;;;;;;;0.10;0.10;;;;;;;11.95;65.48;96415.19;8415657;28;20229;-73
2022/11/18 09:34:50;;;;;;;0.10;0.10;;;;;;;11.68;65.82;96413.66;8415223;28;20534;-73
2022/11/18 09:38:53;;;;;;;0.10;0.10;;;;;;;11.80;66.04;96417.13;8415337;28;20238;-72
2022/11/18 09:43:01;;;;;;;0.10;0.10;;;;;;;11.73;65.80;96427.13;8415423;28;20230;-72
2022/11/18 09:47:12;;;;;;;0.10;0.10;;;;;;;11.85;65.84;96427.97;8414765;28;20237;-71
2022/11/18 09:51:17;;;;;;;0.00;0.00;;;;;;;11.76;66.32;96429.47;8414931;28;20231;-71
2022/11/18 09:55:19;;;;;;;0.10;0.10;;;;;;;11.80;66.41;96433.50;8414285;28;20237;-70
2022/11/18 09:59:24;;;;;;;0.10;0.10;;;;;;;11.77;66.30;96438.91;8414801;28;20522;-70
2022/11/18 10:03:29;;;;;;;0.10;0.10;;;;;;;11.84;66.36;96434.09;8414407;28;20236;-73
2022/11/18 10:07:40;;;;;;;0.10;0.10;;;;;;;11.73;66.82;96437.50;8414576;28;20230;-73
2022/11/18 10:11:46;;;;;;;0.10;0.10;;;;;;;11.68;67.03;96442.19;8414297;28;20247;-73
2022/11/18 10:16:00;;;;;;;0.10;0.10;;;;;;;11.62;67.58;96446.06;8413786;28;20222;-72
2022/11/18 10:20:17;;;;;;;0.10;0.10;;;;;;;11.64;67.22;96458.91;8413069;28;20239;-74
2022/11/18 10:24:23;;;;;;;0.10;0.10;;;;;;;11.83;67.15;96467.00;8413920;28;20229;-74
2022/11/18 10:28:28;;;;;;;0.10;0.10;;;;;;;11.75;66.62;96456.38;8414180;28;20420;-72
2022/11/18 10:32:31;;;;;;;0.10;0.10;;;;;;;11.48;67.33;96462.63;8413848;28;20223;-72
2022/11/18 10:36:35;;;;;;;0.10;0.10;;;;;;;11.58;68.05;96472.31;8413719;28;20234;-72
2022/11/18 10:40:45;;;;;;;0.10;0.10;;;;;;;11.80;67.34;96471.56;8413870;28;20226;-72
2022/11/18 10:44:48;;;;;;;0.10;0.10;;;;;;;11.81;66.93;96473.25;8413580;28;20246;-72
2022/11/18 10:49:13;;;;;;;0.10;0.10;;;;;;;11.84;66.44;96465.22;8413533;28;20235;-72
2022/11/18 10:53:29;;;;;;;0.10;0.10;;;;;;;11.84;66.72;96478.19;8413272;28;20415;-71
2022/11/18 10:57:35;;;;;;;0.10;0.10;;;;;;;11.82;67.00;96477.47;8413367;28;20234;-72
2022/11/18 11:01:38;;;;;;;0.10;0.10;;;;;;;11.92;66.54;96473.31;8413495;28;20234;-72
2022/11/18 11:05:41;;;;;;;0.10;0.10;;;;;;;12.01;66.52;96483.00;8414037;28;20245;-72
2022/11/18 11:09:44;;;;;;;0.10;0.10;;;;;;;12.02;66.61;96476.88;8420194;28;20226;-72
2022/11/18 11:13:48;;;;;;;0.10;0.10;;;;;;;11.91;67.28;96480.25;8419904;28;20231;-72
2022/11/18 11:18:40;;;;;;;0.10;0.10;;;;;;;12.01;66.88;96477.00;8419915;28;20558;-71
2022/11/18 11:22:16;;;;;;;0.10;0.10;;;;;;;12.26;66.56;96476.84;8419640;28;20226;-72
2022/11/18 11:26:22;;;;;;;0.10;0.10;;;;;;;12.01;66.68;96480.41;8419777;28;20292;-71
2022/11/18 11:31:05;;;;;;;0.10;0.10;;;;;;;12.03;66.15;96477.69;8419505;28;20294;-72
2022/11/18 11:35:13;;;;;;;0.00;0.00;;;;;;;11.87;67.22;96477.97;8419444;28;20229;-73
2022/11/18 11:39:37;;;;;;;0.10;0.10;;;;;;;12.07;67.01;96489.50;8419324;28;20226;-73
2022/11/18 11:43:50;;;;;;;0.10;0.10;;;;;;;12.08;67.07;96491.16;8419007;28;20234;-72
2022/11/18 11:48:08;;;;;;;0.10;0.10;;;;;;;12.12;66.61;96493.41;8418243;28;20244;-73
2022/11/18 11:52:17;;;;;;;0.10;0.10;;;;;;;12.00;66.70;96489.13;8418751;28;20268;-73
2022/11/18 11:56:24;;;;;;;0.10;0.10;;;;;;;11.93;67.35;96490.53;8418766;28;20601;-72
2022/11/18 12:00:27;;;;;;;0.10;0.10;;;;;;;11.89;67.64;96494.25;8418527;28;20242;-73
2022/11/18 12:04:39;;;;;;;0.10;0.10;;;;;;;12.08;67.50;96502.38;8418339;28;20234;-72
2022/11/18 12:08:50;;;;;;;0.10;0.10;;;;;;;11.99;67.19;96502.22;8418193;28;20467;-73
2022/11/18 12:13:02;;;;;;;0.10;0.10;;;;;;;12.06;67.55;96493.88;8417751;28;20227;-73
2022/11/18 12:17:11;;;;;;;0.10;0.10;;;;;;;12.06;67.71;96503.44;8417525;28;20235;-73
2022/11/18 12:21:47;;;;;;;0.10;0.10;;;;;;;12.08;67.52;96497.19;8417716;28;20269;-73
2022/11/18 12:26:03;;;;;;;0.10;0.10;;;;;;;12.00;67.94;96501.28;8417625;28;20557;-74
2022/11/18 12:30:18;;;;;;;0.10;0.10;;;;;;;11.96;67.36;96497.28;8417411;28;20234;-73
2022/11/18 12:34:39;;;;;;;0.10;0.10;;;;;;;12.09;67.51;96505.81;8417467;28;20414;-72
2022/11/18 12:38:42;;;;;;;0.10;0.10;;;;;;;12.07;67.52;96505.91;8417314;28;20246;-73
2022/11/18 12:47:08;;;;;;;0.10;0.10;;;;;;;11.90;67.62;96509.75;8417436;28;20245;-73
2022/11/18 12:51:45;;;;;;;0.10;0.10;;;;;;;11.99;67.04;96516.00;8416929;28;20457;-73
2022/11/18 12:55:47;;;;;;;0.10;0.10;;;;;;;11.95;67.64;96517.19;8416877;28;20226;-73
2022/11/18 12:59:52;;;;;;;0.10;0.10;;;;;;;11.89;68.07;96521.03;8416550;28;20234;-72
2022/11/18 13:04:06;;;;;;;0.10;0.10;;;;;;;11.77;68.14;96523.69;8415892;28;20260;-73
2022/11/18 13:08:14;;;;;;;0.10;0.10;;;;;;;11.86;67.80;96525.59;8416559;28;20546;-72
2022/11/18 13:12:17;;;;;;;0.10;0.10;;;;;;;11.82;68.22;96522.41;8427104;28;20238;-73
2022/11/18 13:20:44;;;;;;;0.10;0.10;;;;;;;11.90;67.75;96534.88;8449329;28;20433;-72
2022/11/18 13:24:49;;;;;;;0.10;0.10;;;;;;;11.97;67.82;96528.28;8447967;28;20563;-72
2022/11/18 13:29:18;;;;;;;0.10;0.10;;;;;;;12.08;67.39;96530.09;8448176;28;20248;-71
2022/11/18 13:33:23;;;;;;;0.10;0.10;;;;;;;11.89;67.88;96536.59;8419215;28;20289;-72
2022/11/18 13:37:27;;;;;;;0.10;0.10;;;;;;;12.03;67.42;96539.97;8448717;28;20238;-71
2022/11/18 13:41:32;;;;;;;0.10;0.10;;;;;;;11.92;67.29;96541.59;8448625;28;20492;-72
2022/11/18 13:45:36;;;;;;;0.10;0.10;;;;;;;12.09;67.01;96542.97;8448372;28;20222;-72
2022/11/18 13:49:49;;;;;;;0.10;0.10;;;;;;;12.11;67.48;96542.84;8448382;28;20237;-72
2022/11/18 13:53:53;;;;;;;0.10;0.10;;;;;;;11.93;67.74;96548.41;8438381;28;20243;-72
2022/11/18 13:58:01;;;;;;;0.10;0.10;;;;;;;12.04;67.05;96539.03;8447127;28;20229;-73
2022/11/18 14:02:07;;;;;;;0.10;0.10;;;;;;;13.73;88.94;96548.75;8447781;28;20289;-72
2022/11/18 14:06:12;;;;;;;0.10;0.10;;;;;;;14.46;74.58;96550.59;8447647;28;20230;-73
2022/11/18 14:10:16;;;;;;;0.10;0.10;;;;;;;14.33;66.50;96542.16;8447515;28;20226;-74
2022/11/18 14:14:28;;;;;;;0.10;0.10;;;;;;;14.74;62.77;96552.75;8447324;28;20230;-73
2022/11/18 14:18:33;;;;;;;0.10;0.10;;;;;;;14.64;59.27;96550.06;8447312;28;20226;-75
2022/11/18 14:22:42;;;;;;;0.10;0.10;;;;;;;14.92;60.57;96559.00;8424173;28;20565;-74
2022/11/18 14:26:45;;;;;;;0.00;0.00;;;;;;;13.86;61.47;96554.66;8414315;28;20231;-73
2022/11/18 14:30:57;;;;;;;0.10;0.10;;;;;;;13.57;62.08;96551.75;8413858;28;20534;-73
2022/11/18 14:35:00;;;;;;;0.10;0.10;;;;;;;13.09;62.62;96558.84;8419735;28;20227;-76
2022/11/18 14:39:13;;;;;;;0.10;0.10;;;;;;;12.85;62.87;96568.50;8412753;28;20235;-73
2022/11/18 14:43:33;;;;;;;0.10;0.10;;;;;;;12.62;64.37;96568.50;8413083;28;20552;-73
2022/11/18 14:47:36;;;;;;;0.10;0.10;;;;;;;12.76;64.16;96570.03;8413171;28;20223;-73
2022/11/18 14:51:39;;;;;;;0.10;0.10;;;;;;;12.68;64.42;96578.41;8415259;28;20238;-75
2022/11/18 14:55:44;;;;;;;0.10;0.10;;;;;;;12.31;65.75;96580.31;8412735;28;20431;-74
2022/11/18 14:59:47;;;;;;;0.10;0.10;;;;;;;12.29;65.56;96585.59;8413159;28;20238;-75
2022/11/18 15:03:50;;;;;;;0.10;0.10;;;;;;;12.19;65.37;96587.22;8413007;28;20243;-75
2022/11/18 15:07:53;;;;;;;0.10;0.10;;;;;;;12.14;64.72;96591.91;8420823;28;20249;-76
2022/11/18 15:11:57;;;;;;;0.10;0.10;;;;;;;12.15;65.67;96595.34;8437402;28;20250;-75
2022/11/18 15:16:02;;;;;;;0.10;0.10;;;;;;;12.25;65.38;96593.75;8447076;28;20230;-75
2022/11/18 15:20:05;;;;;;;0.10;0.10;;;;;;;12.23;65.48;96604.22;8446779;28;20442;-75
2022/11/18 15:24:08;;;;;;;0.10;0.10;;;;;;;12.08;65.37;96602.75;8443678;28;20238;-75
2022/11/18 15:28:13;;;;;;;0.10;0.10;;;;;;;12.04;65.98;96609.91;8445768;28;20524;-74
2022/11/18 15:32:15;;;;;;;0.10;0.10;;;;;;;12.09;66.08;96615.63;8446139;28;20221;-75
2022/11/18 15:36:20;;;;;;;0.10;0.10;;;;;;;12.07;65.96;96614.91;8445925;28;20297;-75
2022/11/18 15:40:23;;;;;;;0.10;0.10;;;;;;;12.06;65.98;96612.41;8445681;28;20234;-75
2022/11/18 15:44:27;;;;;;;0.10;0.10;;;;;;;11.97;65.54;96616.47;8445887;28;20222;-74
2022/11/18 15:48:30;;;;;;;0.10;0.10;;;;;;;12.06;65.74;96623.59;8445798;28;20237;-75
2022/11/18 15:52:33;;;;;;;0.10;0.10;;;;;;;11.89;66.37;96624.81;8447466;28;20230;-75
2022/11/18 15:56:37;;;;;;;0.10;0.10;;;;;;;11.96;66.87;96630.41;8451960;28;20297;-75
2022/11/18 16:00:41;;;;;;;0.10;0.10;;;;;;;11.88;66.02;96638.69;8451606;28;20250;-76
2022/11/18 16:04:47;;;;;;;0.10;0.10;;;;;;;11.96;66.52;96643.38;8451169;28;20230;-75
2022/11/18 16:08:49;;;;;;;0.10;0.10;;;;;;;11.79;66.76;96639.34;8451126;28;20241;-75
2022/11/18 16:13:00;;;;;;;0.10;0.10;;;;;;;12.01;66.69;96645.63;8450511;28;20237;-75
2022/11/18 16:17:04;;;;;;;0.07;0.07;;;;;;;12.09;66.37;96646.75;8450789;28;20230;-74
2022/11/18 16:21:07;;;;;;;0.10;0.10;;;;;;;12.04;66.41;96648.84;8450706;28;20234;-74
2022/11/18 16:25:10;;;;;;;0.10;0.10;;;;;;;12.05;66.15;96655.69;8450737;28;20418;-75
2022/11/18 16:29:15;;;;;;;0.10;0.10;;;;;;;12.11;66.06;96654.44;8450528;28;20242;-74
2022/11/18 16:33:20;;;;;;;0.10;0.10;;;;;;;12.08;65.80;96667.63;8450256;28;20229;-74
2022/11/18 16:37:23;;;;;;;0.10;0.10;;;;;;;12.15;66.40;96671.44;8450212;28;20229;-75
2022/11/18 16:41:31;;;;;;;0.10;0.10;;;;;;;12.00;66.60;96670.75;8449859;28;20393;-74
2022/11/18 16:45:34;;;;;;;0.10;0.10;;;;;;;12.10;66.55;96666.56;8450208;28;20332;-74
2022/11/18 16:49:38;;;;;;;0.10;0.10;;;;;;;12.04;66.86;96677.38;8449883;28;20307;-74
2022/11/18 16:53:41;;;;;;;0.10;0.10;;;;;;;12.15;66.51;96668.00;8449636;28;20282;-75
2022/11/18 16:57:44;;;;;;;0.10;0.10;;;;;;;12.11;66.71;96677.78;8449556;28;20233;-75
2022/11/18 17:01:48;;;;;;;0.10;0.10;;;;;;;12.06;66.39;96677.28;8449543;28;20238;-75
2022/11/18 17:05:52;;;;;;;0.10;0.10;;;;;;;12.04;66.62;96684.34;8449354;28;20238;-75
2022/11/18 17:09:55;;;;;;;0.10;0.10;;;;;;;12.03;66.28;96685.28;8448709;28;20226;-75
2022/11/18 17:13:58;;;;;;;0.10;0.10;;;;;;;11.98;66.78;96687.38;8448968;28;20234;-75
2022/11/18 17:18:00;;;;;;;0.10;0.10;;;;;;;11.86;67.65;96687.28;8448932;28;20252;-75
2022/11/18 17:22:05;;;;;;;0.10;0.10;;;;;;;12.00;66.69;96685.50;8448646;28;20534;-73
2022/11/18 17:26:08;;;;;;;0.10;0.10;;;;;;;11.92;66.56;96688.63;8448607;28;20545;-74
2022/11/18 17:30:12;;;;;;;0.10;0.10;;;;;;;11.96;66.96;96686.66;8448975;28;20289;-74
2022/11/18 17:34:15;;;;;;;0.10;0.10;;;;;;;11.96;66.86;96692.66;8448884;28;20252;-74
2022/11/18 17:38:20;;;;;;;0.10;0.10;;;;;;;11.94;67.06;96694.53;8411659;28;20296;-75
2022/11/18 17:42:24;;;;;;;0.10;0.10;;;;;;;11.80;67.10;96687.66;8415054;28;20416;-74
2022/11/18 17:46:27;;;;;;;0.10;0.10;;;;;;;11.76;66.55;96694.00;8414775;28;20223;-73
2022/11/18 17:50:36;;;;;;;0.10;0.10;;;;;;;11.71;66.84;96704.72;8414388;28;20417;-74
2022/11/18 17:54:41;;;;;;;0.10;0.10;;;;;;;11.72;66.35;96705.53;8414314;28;20257;-74
2022/11/18 17:58:44;;;;;;;0.10;0.10;;;;;;;11.63;66.78;96713.94;8414118;28;20287;-74
2022/11/18 18:02:47;;;;;;;0.10;0.10;;;;;;;11.64;66.62;96719.03;8404109;28;20230;-75
2022/11/18 18:06:51;;;;;;;0.10;0.10;;;;;;;11.80;66.13;96728.34;8439638;28;20230;-74
2022/11/18 18:11:00;;;;;;;0.10;0.10;;;;;;;11.82;66.01;96732.53;8429655;28;20226;-73
2022/11/18 18:15:04;;;;;;;0.10;0.10;;;;;;;11.85;65.89;96741.84;8429701;28;20557;-71
2022/11/18 18:19:07;;;;;;;0.10;0.10;;;;;;;11.79;66.31;96737.09;8440602;28;20230;-73
2022/11/18 18:23:10;;;;;;;0.10;0.10;;;;;;;11.88;66.32;96734.69;8446929;28;20268;-73
2022/11/18 18:27:14;;;;;;;0.10;0.10;;;;;;;11.78;66.73;96754.38;8446920;28;20230;-73
2022/11/18 18:31:17;;;;;;;0.10;0.10;;;;;;;11.79;65.57;96755.25;8446923;28;20226;-72
2022/11/18 18:35:20;;;;;;;0.10;0.10;;;;;;;11.69;66.07;96766.25;8409434;28;20234;-72
2022/11/18 18:39:23;;;;;;;0.10;0.10;;;;;;;11.19;66.14;96772.19;8412893;28;20234;-72
2022/11/18 18:43:27;;;;;;;0.10;0.10;;;;;;;11.08;66.36;96770.31;8433816;28;20230;-72
2022/11/18 18:47:30;;;;;;;0.10;0.10;;;;;;;11.07;66.09;96771.25;8446570;28;20241;-72
2022/11/18 18:51:35;;;;;;;0.10;0.10;;;;;;;11.27;64.90;96767.34;8446263;28;20225;-71
2022/11/18 18:55:38;;;;;;;0.10;0.10;;;;;;;11.27;64.96;96772.50;8446313;28;20287;-74
2022/11/18 18:59:48;;;;;;;0.10;0.10;;;;;;;11.22;63.90;96778.03;8446183;28;20237;-73
2022/11/18 19:03:54;;;;;;;0.10;0.10;;;;;;;11.27;64.29;96775.09;8446078;28;20241;-73
2022/11/18 19:07:57;;;;;;;0.10;0.10;;;;;;;11.32;63.88;96786.00;8445541;28;20355;-73
2022/11/18 19:16:22;;;;;;;0.10;0.10;;;;;;;11.37;64.07;96780.53;8445835;28;20229;-73
2022/11/18 19:20:35;;;;;;;0.10;0.10;;;;;;;11.47;64.49;96791.94;8445955;28;20241;-71
2022/11/18 19:24:38;;;;;;;0.10;0.10;;;;;;;11.49;64.39;96792.66;8445972;28;20245;-72
2022/11/18 19:28:56;;;;;;;0.10;0.10;;;;;;;11.45;64.67;96792.03;8449594;28;20279;-73
2022/11/18 19:33:00;;;;;;;0.10;0.10;;;;;;;11.34;65.38;96810.88;8452312;28;20237;-73
2022/11/18 19:37:04;;;;;;;0.10;0.10;;;;;;;11.24;65.39;96799.47;8452041;28;20233;-74
2022/11/18 19:41:08;;;;;;;0.10;0.10;;;;;;;11.21;65.32;96804.03;8452106;28;20252;-75
2022/11/18 19:45:11;;;;;;;0.10;0.10;;;;;;;11.20;64.71;96803.19;8451847;28;20225;-73